sensor_id;sensor_type;location;lat;lon;timestamp;temperature;humidity
8563;DHT22;16392;52.508;13.468;2022-08-01T00:00:10;21.60;1.00
8563;DHT22;16392;52.508;13.468;2022-08-01T00:02:37;21.60;1.00
8563;DHT22;16392;52.508;13.468;2022-08-01T00:05:05;21.60;1.00
8563;DHT22;16392;52.508;13.468;2022-08-01T00:07:32;21.60;1.00
8563;DHT22;16392;52.508;13.468;2022-08-01T00:09:59;21.60;1.00
8563;DHT22;16392;52.508;13.468;2022-08-01T00:12:26;21.60;99.90
8563;DHT22;16392;52.508;13.468;2022-08-01T00:14:53;21.50;99.90
8563;DHT22;16392;52.508;13.468;2022-08-01T00:17:20;21.50;1.00
8563;DHT22;16392;52.508;13.468;2022-08-01T00:19:46;21.40;99.90
8563;DHT22;16392;52.508;13.468;2022-08-01T00:22:13;21.40;1.00
8563;DHT22;16392;52.508;13.468;2022-08-01T00:24:39;21.40;99.90
8563;DHT22;16392;52.508;13.468;2022-08-01T00:27:06;21.30;1.00
8563;DHT22;16392;52.508;13.468;2022-08-01T00:29:34;21.30;99.90
8563;DHT22;16392;52.508;13.468;2022-08-01T00:32:00;21.30;2.20
8563;DHT22;16392;52.508;13.468;2022-08-01T00:34:27;21.30;1.00
8563;DHT22;16392;52.508;13.468;2022-08-01T00:36:54;21.20;99.90
8563;DHT22;16392;52.508;13.468;2022-08-01T00:39:20;21.20;1.00
8563;DHT22;16392;52.508;13.468;2022-08-01T00:41:47;21.10;99.90
8563;DHT22;16392;52.508;13.468;2022-08-01T00:44:13;21.10;99.90
8563;DHT22;16392;52.508;13.468;2022-08-01T00:46:41;21.00;1.00
8563;DHT22;16392;52.508;13.468;2022-08-01T00:49:08;20.90;1.00
8563;DHT22;16392;52.508;13.468;2022-08-01T00:51:35;20.90;1.00
8563;DHT22;16392;52.508;13.468;2022-08-01T00:54:02;20.80;1.00
8563;DHT22;16392;52.508;13.468;2022-08-01T00:56:28;20.70;49.80
8563;DHT22;16392;52.508;13.468;2022-08-01T00:58:56;20.70;89.90
8563;DHT22;16392;52.508;13.468;2022-08-01T01:01:23;20.60;99.90
8563;DHT22;16392;52.508;13.468;2022-08-01T01:03:52;20.60;99.90
8563;DHT22;16392;52.508;13.468;2022-08-01T01:06:34;20.60;99.90
8563;DHT22;16392;52.508;13.468;2022-08-01T01:09:26;20.50;99.90
8563;DHT22;16392;52.508;13.468;2022-08-01T01:12:01;20.50;99.90
8563;DHT22;16392;52.508;13.468;2022-08-01T01:14:37;20.50;99.90
8563;DHT22;16392;52.508;13.468;2022-08-01T01:17:11;20.50;99.90
8563;DHT22;16392;52.508;13.468;2022-08-01T01:19:45;20.50;99.90
8563;DHT22;16392;52.508;13.468;2022-08-01T01:22:39;20.50;99.90
8563;DHT22;16392;52.508;13.468;2022-08-01T01:25:21;20.40;99.90
8563;DHT22;16392;52.508;13.468;2022-08-01T01:27:54;20.40;99.90
8563;DHT22;16392;52.508;13.468;2022-08-01T01:30:26;20.40;99.90
8563;DHT22;16392;52.508;13.468;2022-08-01T01:32:58;20.40;99.90
8563;DHT22;16392;52.508;13.468;2022-08-01T01:35:29;20.40;99.90
8563;DHT22;16392;52.508;13.468;2022-08-01T01:38:01;20.40;99.90
8563;DHT22;16392;52.508;13.468;2022-08-01T01:40:29;20.40;99.90
8563;DHT22;16392;52.508;13.468;2022-08-01T01:42:56;20.40;99.90
8563;DHT22;16392;52.508;13.468;2022-08-01T01:45:26;20.40;99.90
8563;DHT22;16392;52.508;13.468;2022-08-01T01:47:54;20.50;99.90
8563;DHT22;16392;52.508;13.468;2022-08-01T01:50:22;20.50;99.90
8563;DHT22;16392;52.508;13.468;2022-08-01T01:52:51;20.50;99.90
8563;DHT22;16392;52.508;13.468;2022-08-01T01:55:19;20.50;99.90
8563;DHT22;16392;52.508;13.468;2022-08-01T01:57:46;20.50;99.90
8563;DHT22;16392;52.508;13.468;2022-08-01T02:00:14;20.50;99.90
8563;DHT22;16392;52.508;13.468;2022-08-01T02:02:43;20.50;99.90
8563;DHT22;16392;52.508;13.468;2022-08-01T02:05:12;20.50;99.90
8563;DHT22;16392;52.508;13.468;2022-08-01T02:07:39;20.40;99.90
8563;DHT22;16392;52.508;13.468;2022-08-01T02:10:07;20.40;99.90
8563;DHT22;16392;52.508;13.468;2022-08-01T02:12:36;20.30;99.90
8563;DHT22;16392;52.508;13.468;2022-08-01T02:15:05;20.30;99.90
8563;DHT22;16392;52.508;13.468;2022-08-01T02:17:34;20.20;99.90
8563;DHT22;16392;52.508;13.468;2022-08-01T02:20:06;20.10;99.90
8563;DHT22;16392;52.508;13.468;2022-08-01T02:22:35;20.10;99.90
8563;DHT22;16392;52.508;13.468;2022-08-01T02:25:09;20.00;99.90
8563;DHT22;16392;52.508;13.468;2022-08-01T02:27:41;20.00;99.90
8563;DHT22;16392;52.508;13.468;2022-08-01T02:30:10;19.90;99.90
8563;DHT22;16392;52.508;13.468;2022-08-01T02:32:44;19.90;99.90
8563;DHT22;16392;52.508;13.468;2022-08-01T02:35:19;19.80;99.90
8563;DHT22;16392;52.508;13.468;2022-08-01T02:37:49;19.70;99.90
8563;DHT22;16392;52.508;13.468;2022-08-01T02:40:17;19.70;99.90
8563;DHT22;16392;52.508;13.468;2022-08-01T02:42:47;19.60;99.90
8563;DHT22;16392;52.508;13.468;2022-08-01T02:45:15;19.60;99.90
8563;DHT22;16392;52.508;13.468;2022-08-01T02:47:44;19.50;99.90
8563;DHT22;16392;52.508;13.468;2022-08-01T02:50:14;19.50;99.90
8563;DHT22;16392;52.508;13.468;2022-08-01T02:52:44;19.40;99.90
8563;DHT22;16392;52.508;13.468;2022-08-01T02:55:13;19.40;99.90
8563;DHT22;16392;52.508;13.468;2022-08-01T02:57:40;19.50;99.90
8563;DHT22;16392;52.508;13.468;2022-08-01T03:00:09;19.50;99.90
8563;DHT22;16392;52.508;13.468;2022-08-01T03:02:37;19.50;99.90
8563;DHT22;16392;52.508;13.468;2022-08-01T03:05:05;19.60;99.90
8563;DHT22;16392;52.508;13.468;2022-08-01T03:07:36;19.60;99.90
8563;DHT22;16392;52.508;13.468;2022-08-01T03:10:06;19.60;99.90
8563;DHT22;16392;52.508;13.468;2022-08-01T03:12:33;19.60;99.90
8563;DHT22;16392;52.508;13.468;2022-08-01T03:15:02;19.60;99.90
8563;DHT22;16392;52.508;13.468;2022-08-01T03:17:30;19.60;99.90
8563;DHT22;16392;52.508;13.468;2022-08-01T03:19:58;19.60;99.90
8563;DHT22;16392;52.508;13.468;2022-08-01T03:22:27;19.60;99.90
8563;DHT22;16392;52.508;13.468;2022-08-01T03:24:57;19.60;99.90
8563;DHT22;16392;52.508;13.468;2022-08-01T03:27:25;19.50;99.90
8563;DHT22;16392;52.508;13.468;2022-08-01T03:29:55;19.50;99.90
8563;DHT22;16392;52.508;13.468;2022-08-01T03:32:23;19.50;99.90
8563;DHT22;16392;52.508;13.468;2022-08-01T03:34:51;19.50;99.90
8563;DHT22;16392;52.508;13.468;2022-08-01T03:37:23;19.50;99.90
8563;DHT22;16392;52.508;13.468;2022-08-01T03:39:57;19.50;99.90
8563;DHT22;16392;52.508;13.468;2022-08-01T03:42:37;19.60;99.90
8563;DHT22;16392;52.508;13.468;2022-08-01T03:45:08;19.60;99.90
8563;DHT22;16392;52.508;13.468;2022-08-01T03:47:42;19.70;99.90
8563;DHT22;16392;52.508;13.468;2022-08-01T03:50:10;19.80;99.90
8563;DHT22;16392;52.508;13.468;2022-08-01T03:52:39;19.80;99.90
8563;DHT22;16392;52.508;13.468;2022-08-01T03:55:11;19.90;99.90
8563;DHT22;16392;52.508;13.468;2022-08-01T03:57:39;20.00;99.90
8563;DHT22;16392;52.508;13.468;2022-08-01T04:00:07;20.00;99.90
8563;DHT22;16392;52.508;13.468;2022-08-01T04:02:35;20.00;99.90
8563;DHT22;16392;52.508;13.468;2022-08-01T04:05:02;20.00;99.90
8563;DHT22;16392;52.508;13.468;2022-08-01T04:07:32;20.00;99.90
8563;DHT22;16392;52.508;13.468;2022-08-01T04:10:01;20.00;99.90
8563;DHT22;16392;52.508;13.468;2022-08-01T04:12:29;20.00;99.90
8563;DHT22;16392;52.508;13.468;2022-08-01T04:14:55;20.10;99.90
8563;DHT22;16392;52.508;13.468;2022-08-01T04:17:22;20.10;99.90
8563;DHT22;16392;52.508;13.468;2022-08-01T04:19:48;20.10;99.90
8563;DHT22;16392;52.508;13.468;2022-08-01T04:22:15;20.10;99.90
8563;DHT22;16392;52.508;13.468;2022-08-01T04:24:45;20.10;99.90
8563;DHT22;16392;52.508;13.468;2022-08-01T04:27:17;20.10;99.90
8563;DHT22;16392;52.508;13.468;2022-08-01T04:29:46;20.10;99.90
8563;DHT22;16392;52.508;13.468;2022-08-01T04:32:16;20.10;99.90
8563;DHT22;16392;52.508;13.468;2022-08-01T04:34:45;20.20;99.90
8563;DHT22;16392;52.508;13.468;2022-08-01T04:37:13;20.20;99.90
8563;DHT22;16392;52.508;13.468;2022-08-01T04:39:42;20.20;99.90
8563;DHT22;16392;52.508;13.468;2022-08-01T04:42:10;20.20;99.90
8563;DHT22;16392;52.508;13.468;2022-08-01T04:44:37;20.30;99.90
8563;DHT22;16392;52.508;13.468;2022-08-01T04:47:05;20.40;99.90
8563;DHT22;16392;52.508;13.468;2022-08-01T04:49:33;20.50;99.90
8563;DHT22;16392;52.508;13.468;2022-08-01T04:52:00;20.60;99.90
8563;DHT22;16392;52.508;13.468;2022-08-01T04:54:27;20.60;99.90
8563;DHT22;16392;52.508;13.468;2022-08-01T04:56:55;20.60;99.90
8563;DHT22;16392;52.508;13.468;2022-08-01T04:59:25;20.60;99.90
8563;DHT22;16392;52.508;13.468;2022-08-01T05:02:10;20.50;99.90
8563;DHT22;16392;52.508;13.468;2022-08-01T05:04:37;20.40;99.90
8563;DHT22;16392;52.508;13.468;2022-08-01T05:07:05;20.50;99.90
8563;DHT22;16392;52.508;13.468;2022-08-01T05:09:36;20.40;99.90
8563;DHT22;16392;52.508;13.468;2022-08-01T05:12:05;20.30;99.90
8563;DHT22;16392;52.508;13.468;2022-08-01T05:14:32;20.30;99.90
8563;DHT22;16392;52.508;13.468;2022-08-01T05:16:59;20.20;99.90
8563;DHT22;16392;52.508;13.468;2022-08-01T05:19:30;20.20;99.90
8563;DHT22;16392;52.508;13.468;2022-08-01T05:21:58;20.10;99.90
8563;DHT22;16392;52.508;13.468;2022-08-01T05:24:26;20.10;99.90
8563;DHT22;16392;52.508;13.468;2022-08-01T05:26:53;20.20;99.90
8563;DHT22;16392;52.508;13.468;2022-08-01T05:29:20;20.30;99.90
8563;DHT22;16392;52.508;13.468;2022-08-01T05:31:47;20.20;99.90
8563;DHT22;16392;52.508;13.468;2022-08-01T05:34:13;20.30;99.90
8563;DHT22;16392;52.508;13.468;2022-08-01T05:36:42;20.30;99.90
8563;DHT22;16392;52.508;13.468;2022-08-01T05:39:08;20.30;99.90
8563;DHT22;16392;52.508;13.468;2022-08-01T05:41:35;20.40;99.90
8563;DHT22;16392;52.508;13.468;2022-08-01T05:44:02;20.40;99.90
8563;DHT22;16392;52.508;13.468;2022-08-01T05:46:29;20.50;99.90
8563;DHT22;16392;52.508;13.468;2022-08-01T05:48:56;20.50;99.90
8563;DHT22;16392;52.508;13.468;2022-08-01T05:51:22;20.60;99.90
8563;DHT22;16392;52.508;13.468;2022-08-01T05:53:50;20.60;99.90
8563;DHT22;16392;52.508;13.468;2022-08-01T05:56:17;20.70;99.90
8563;DHT22;16392;52.508;13.468;2022-08-01T05:58:44;20.80;99.90
8563;DHT22;16392;52.508;13.468;2022-08-01T06:01:11;20.80;99.90
8563;DHT22;16392;52.508;13.468;2022-08-01T06:03:38;21.00;99.90
8563;DHT22;16392;52.508;13.468;2022-08-01T06:06:04;21.00;99.90
8563;DHT22;16392;52.508;13.468;2022-08-01T06:08:32;21.00;99.90
8563;DHT22;16392;52.508;13.468;2022-08-01T06:11:00;21.10;99.90
8563;DHT22;16392;52.508;13.468;2022-08-01T06:13:27;21.20;99.90
8563;DHT22;16392;52.508;13.468;2022-08-01T06:15:54;21.20;99.90
8563;DHT22;16392;52.508;13.468;2022-08-01T06:18:21;21.20;99.90
8563;DHT22;16392;52.508;13.468;2022-08-01T06:20:48;21.20;99.90
8563;DHT22;16392;52.508;13.468;2022-08-01T06:23:14;21.30;99.90
8563;DHT22;16392;52.508;13.468;2022-08-01T06:25:42;21.30;99.90
8563;DHT22;16392;52.508;13.468;2022-08-01T06:28:10;21.20;99.90
8563;DHT22;16392;52.508;13.468;2022-08-01T06:30:36;21.00;99.90
8563;DHT22;16392;52.508;13.468;2022-08-01T06:33:03;20.80;99.90
8563;DHT22;16392;52.508;13.468;2022-08-01T06:35:30;20.80;99.90
8563;DHT22;16392;52.508;13.468;2022-08-01T06:37:57;20.90;99.90
8563;DHT22;16392;52.508;13.468;2022-08-01T06:40:24;20.90;99.90
8563;DHT22;16392;52.508;13.468;2022-08-01T06:42:51;20.90;99.90
8563;DHT22;16392;52.508;13.468;2022-08-01T06:45:19;20.90;99.90
8563;DHT22;16392;52.508;13.468;2022-08-01T06:47:48;21.00;99.90
8563;DHT22;16392;52.508;13.468;2022-08-01T06:50:15;21.00;99.90
8563;DHT22;16392;52.508;13.468;2022-08-01T06:52:41;21.50;99.90
8563;DHT22;16392;52.508;13.468;2022-08-01T06:55:09;22.10;99.90
8563;DHT22;16392;52.508;13.468;2022-08-01T06:57:45;22.10;99.90
8563;DHT22;16392;52.508;13.468;2022-08-01T07:00:13;21.80;99.90
8563;DHT22;16392;52.508;13.468;2022-08-01T07:02:42;21.90;99.90
8563;DHT22;16392;52.508;13.468;2022-08-01T07:05:09;21.80;99.90
8563;DHT22;16392;52.508;13.468;2022-08-01T07:07:36;21.90;99.90
8563;DHT22;16392;52.508;13.468;2022-08-01T07:10:03;22.20;99.90
8563;DHT22;16392;52.508;13.468;2022-08-01T07:12:30;22.10;99.90
8563;DHT22;16392;52.508;13.468;2022-08-01T07:14:58;22.10;99.90
8563;DHT22;16392;52.508;13.468;2022-08-01T07:17:25;21.70;99.90
8563;DHT22;16392;52.508;13.468;2022-08-01T07:19:52;21.60;99.90
8563;DHT22;16392;52.508;13.468;2022-08-01T07:22:20;21.50;99.90
8563;DHT22;16392;52.508;13.468;2022-08-01T07:24:47;21.50;99.90
8563;DHT22;16392;52.508;13.468;2022-08-01T07:27:14;21.50;99.90
8563;DHT22;16392;52.508;13.468;2022-08-01T07:29:40;21.40;99.90
8563;DHT22;16392;52.508;13.468;2022-08-01T07:32:07;21.40;99.90
8563;DHT22;16392;52.508;13.468;2022-08-01T07:34:34;21.50;99.90
8563;DHT22;16392;52.508;13.468;2022-08-01T07:37:02;21.80;99.90
8563;DHT22;16392;52.508;13.468;2022-08-01T07:39:28;21.90;99.90
8563;DHT22;16392;52.508;13.468;2022-08-01T07:41:55;22.10;99.90
8563;DHT22;16392;52.508;13.468;2022-08-01T07:44:23;22.10;99.90
8563;DHT22;16392;52.508;13.468;2022-08-01T07:46:50;22.10;99.90
8563;DHT22;16392;52.508;13.468;2022-08-01T07:49:16;21.90;99.90
8563;DHT22;16392;52.508;13.468;2022-08-01T07:51:43;21.70;99.90
8563;DHT22;16392;52.508;13.468;2022-08-01T07:54:11;21.30;99.90
8563;DHT22;16392;52.508;13.468;2022-08-01T07:56:37;21.00;99.90
8563;DHT22;16392;52.508;13.468;2022-08-01T07:59:04;21.00;99.90
8563;DHT22;16392;52.508;13.468;2022-08-01T08:01:30;21.20;99.90
8563;DHT22;16392;52.508;13.468;2022-08-01T08:03:57;21.70;99.90
8563;DHT22;16392;52.508;13.468;2022-08-01T08:06:24;22.40;99.90
8563;DHT22;16392;52.508;13.468;2022-08-01T08:08:50;22.80;99.90
8563;DHT22;16392;52.508;13.468;2022-08-01T08:11:20;22.70;99.90
8563;DHT22;16392;52.508;13.468;2022-08-01T08:13:47;22.20;99.90
8563;DHT22;16392;52.508;13.468;2022-08-01T08:16:13;22.00;99.90
8563;DHT22;16392;52.508;13.468;2022-08-01T08:18:40;21.80;99.90
8563;DHT22;16392;52.508;13.468;2022-08-01T08:21:07;21.60;99.90
8563;DHT22;16392;52.508;13.468;2022-08-01T08:23:33;21.50;99.90
8563;DHT22;16392;52.508;13.468;2022-08-01T08:26:19;21.20;99.90
8563;DHT22;16392;52.508;13.468;2022-08-01T08:28:46;21.10;99.90
8563;DHT22;16392;52.508;13.468;2022-08-01T08:31:12;21.10;99.90
8563;DHT22;16392;52.508;13.468;2022-08-01T08:33:39;21.00;99.90
8563;DHT22;16392;52.508;13.468;2022-08-01T08:36:05;21.20;99.90
8563;DHT22;16392;52.508;13.468;2022-08-01T08:38:32;21.40;99.90
8563;DHT22;16392;52.508;13.468;2022-08-01T08:40:59;21.60;99.90
8563;DHT22;16392;52.508;13.468;2022-08-01T08:43:27;21.70;99.90
8563;DHT22;16392;52.508;13.468;2022-08-01T08:45:54;21.90;99.90
8563;DHT22;16392;52.508;13.468;2022-08-01T08:48:21;22.20;99.90
8563;DHT22;16392;52.508;13.468;2022-08-01T08:50:49;22.10;99.90
8563;DHT22;16392;52.508;13.468;2022-08-01T08:53:18;22.30;99.90
8563;DHT22;16392;52.508;13.468;2022-08-01T08:55:45;22.70;99.90
8563;DHT22;16392;52.508;13.468;2022-08-01T08:58:13;23.00;99.90
8563;DHT22;16392;52.508;13.468;2022-08-01T09:00:42;23.20;99.90
8563;DHT22;16392;52.508;13.468;2022-08-01T09:03:09;23.20;83.90
8563;DHT22;16392;52.508;13.468;2022-08-01T09:05:35;22.80;21.60
8563;DHT22;16392;52.508;13.468;2022-08-01T09:08:06;22.50;99.90
8563;DHT22;16392;52.508;13.468;2022-08-01T09:10:33;22.50;95.70
8563;DHT22;16392;52.508;13.468;2022-08-01T09:13:07;22.30;56.30
8563;DHT22;16392;52.508;13.468;2022-08-01T09:15:45;22.40;99.90
8563;DHT22;16392;52.508;13.468;2022-08-01T09:18:32;22.60;1.00
8563;DHT22;16392;52.508;13.468;2022-08-01T09:21:08;22.80;1.00
8563;DHT22;16392;52.508;13.468;2022-08-01T09:23:36;23.30;99.90
8563;DHT22;16392;52.508;13.468;2022-08-01T09:26:05;23.80;1.00
8563;DHT22;16392;52.508;13.468;2022-08-01T09:28:32;24.00;1.00
8563;DHT22;16392;52.508;13.468;2022-08-01T09:31:06;24.10;99.90
8563;DHT22;16392;52.508;13.468;2022-08-01T09:33:50;23.90;1.00
8563;DHT22;16392;52.508;13.468;2022-08-01T09:36:18;23.50;1.00
8563;DHT22;16392;52.508;13.468;2022-08-01T09:38:44;23.40;17.60
8563;DHT22;16392;52.508;13.468;2022-08-01T09:41:11;23.40;1.00
8563;DHT22;16392;52.508;13.468;2022-08-01T09:43:38;23.30;99.90
8563;DHT22;16392;52.508;13.468;2022-08-01T09:46:09;23.50;1.00
8563;DHT22;16392;52.508;13.468;2022-08-01T09:48:36;23.50;99.90
8563;DHT22;16392;52.508;13.468;2022-08-01T09:51:05;23.40;99.90
8563;DHT22;16392;52.508;13.468;2022-08-01T09:53:44;23.30;28.30
8563;DHT22;16392;52.508;13.468;2022-08-01T09:56:12;23.30;1.00
8563;DHT22;16392;52.508;13.468;2022-08-01T09:58:49;23.10;1.00
8563;DHT22;16392;52.508;13.468;2022-08-01T10:01:20;22.90;1.00
8563;DHT22;16392;52.508;13.468;2022-08-01T10:03:47;22.80;99.90
8563;DHT22;16392;52.508;13.468;2022-08-01T10:06:19;22.80;99.90
8563;DHT22;16392;52.508;13.468;2022-08-01T10:08:47;22.80;1.00
8563;DHT22;16392;52.508;13.468;2022-08-01T10:11:14;22.70;96.10
8563;DHT22;16392;52.508;13.468;2022-08-01T10:13:40;22.60;99.90
8563;DHT22;16392;52.508;13.468;2022-08-01T10:16:07;22.50;1.00
8563;DHT22;16392;52.508;13.468;2022-08-01T10:18:37;22.60;99.90
8563;DHT22;16392;52.508;13.468;2022-08-01T10:21:05;22.60;99.90
8563;DHT22;16392;52.508;13.468;2022-08-01T10:23:36;22.70;99.90
8563;DHT22;16392;52.508;13.468;2022-08-01T10:26:05;22.60;99.90
8563;DHT22;16392;52.508;13.468;2022-08-01T10:28:35;22.60;1.00
8563;DHT22;16392;52.508;13.468;2022-08-01T10:31:02;22.60;99.90
8563;DHT22;16392;52.508;13.468;2022-08-01T10:33:30;22.60;99.90
8563;DHT22;16392;52.508;13.468;2022-08-01T10:35:58;22.50;99.90
8563;DHT22;16392;52.508;13.468;2022-08-01T10:38:25;22.50;99.90
8563;DHT22;16392;52.508;13.468;2022-08-01T10:40:54;22.40;99.90
8563;DHT22;16392;52.508;13.468;2022-08-01T10:43:22;22.40;1.00
8563;DHT22;16392;52.508;13.468;2022-08-01T10:45:49;22.40;1.00
8563;DHT22;16392;52.508;13.468;2022-08-01T10:48:19;22.30;1.00
8563;DHT22;16392;52.508;13.468;2022-08-01T10:50:48;22.50;99.90
8563;DHT22;16392;52.508;13.468;2022-08-01T10:53:18;22.70;99.90
8563;DHT22;16392;52.508;13.468;2022-08-01T10:55:47;22.90;99.90
8563;DHT22;16392;52.508;13.468;2022-08-01T10:58:13;22.80;99.90
8563;DHT22;16392;52.508;13.468;2022-08-01T11:00:45;23.00;45.40
8563;DHT22;16392;52.508;13.468;2022-08-01T11:03:12;23.30;96.90
8563;DHT22;16392;52.508;13.468;2022-08-01T11:05:40;23.10;8.80
8563;DHT22;16392;52.508;13.468;2022-08-01T11:08:10;23.10;1.00
8563;DHT22;16392;52.508;13.468;2022-08-01T11:10:41;23.00;1.00
8563;DHT22;16392;52.508;13.468;2022-08-01T11:13:08;23.00;99.90
8563;DHT22;16392;52.508;13.468;2022-08-01T11:15:37;23.20;99.90
8563;DHT22;16392;52.508;13.468;2022-08-01T11:18:31;23.50;1.00
8563;DHT22;16392;52.508;13.468;2022-08-01T11:20:59;23.60;1.00
8563;DHT22;16392;52.508;13.468;2022-08-01T11:23:27;23.90;99.90
8563;DHT22;16392;52.508;13.468;2022-08-01T11:26:14;24.00;99.90
8563;DHT22;16392;52.508;13.468;2022-08-01T11:28:43;23.70;99.90
8563;DHT22;16392;52.508;13.468;2022-08-01T11:31:30;23.50;99.90
8563;DHT22;16392;52.508;13.468;2022-08-01T11:33:59;23.20;1.00
8563;DHT22;16392;52.508;13.468;2022-08-01T11:36:26;22.80;99.90
8563;DHT22;16392;52.508;13.468;2022-08-01T11:39:16;22.60;99.90
8563;DHT22;16392;52.508;13.468;2022-08-01T11:41:43;22.10;1.00
8563;DHT22;16392;52.508;13.468;2022-08-01T11:44:12;21.70;99.90
8563;DHT22;16392;52.508;13.468;2022-08-01T11:46:51;21.40;99.90
8563;DHT22;16392;52.508;13.468;2022-08-01T11:49:33;21.30;99.90
8563;DHT22;16392;52.508;13.468;2022-08-01T11:52:04;21.50;99.90
8563;DHT22;16392;52.508;13.468;2022-08-01T11:54:32;21.70;99.90
8563;DHT22;16392;52.508;13.468;2022-08-01T11:57:00;21.90;99.90
8563;DHT22;16392;52.508;13.468;2022-08-01T11:59:27;22.00;99.90
8563;DHT22;16392;52.508;13.468;2022-08-01T12:01:54;22.30;99.90
8563;DHT22;16392;52.508;13.468;2022-08-01T12:04:21;22.70;99.90
8563;DHT22;16392;52.508;13.468;2022-08-01T12:06:49;23.10;28.00
8563;DHT22;16392;52.508;13.468;2022-08-01T12:09:17;23.50;1.00
8563;DHT22;16392;52.508;13.468;2022-08-01T12:11:44;23.70;1.00
8563;DHT22;16392;52.508;13.468;2022-08-01T12:14:16;24.00;99.90
8563;DHT22;16392;52.508;13.468;2022-08-01T12:16:51;24.30;82.60
8563;DHT22;16392;52.508;13.468;2022-08-01T12:19:20;24.60;1.00
8563;DHT22;16392;52.508;13.468;2022-08-01T12:22:07;24.80;99.90
8563;DHT22;16392;52.508;13.468;2022-08-01T12:24:34;25.10;17.40
8563;DHT22;16392;52.508;13.468;2022-08-01T12:27:01;25.20;1.00
8563;DHT22;16392;52.508;13.468;2022-08-01T12:29:33;25.40;1.00
8563;DHT22;16392;52.508;13.468;2022-08-01T12:31:59;25.30;1.00
8563;DHT22;16392;52.508;13.468;2022-08-01T12:34:27;24.80;1.00
8563;DHT22;16392;52.508;13.468;2022-08-01T12:36:54;24.80;99.90
8563;DHT22;16392;52.508;13.468;2022-08-01T12:39:29;24.10;1.00
8563;DHT22;16392;52.508;13.468;2022-08-01T12:41:56;23.50;99.90
8563;DHT22;16392;52.508;13.468;2022-08-01T12:44:22;22.80;1.00
8563;DHT22;16392;52.508;13.468;2022-08-01T12:46:49;23.10;1.00
8563;DHT22;16392;52.508;13.468;2022-08-01T12:49:17;23.70;1.00
8563;DHT22;16392;52.508;13.468;2022-08-01T12:51:43;24.40;99.90
8563;DHT22;16392;52.508;13.468;2022-08-01T12:54:10;24.60;99.90
8563;DHT22;16392;52.508;13.468;2022-08-01T12:56:38;24.90;1.00
8563;DHT22;16392;52.508;13.468;2022-08-01T12:59:19;24.80;72.40
8563;DHT22;16392;52.508;13.468;2022-08-01T13:01:46;24.60;99.90
8563;DHT22;16392;52.508;13.468;2022-08-01T13:04:13;24.60;1.00
8563;DHT22;16392;52.508;13.468;2022-08-01T13:06:40;24.40;5.40
8563;DHT22;16392;52.508;13.468;2022-08-01T13:09:07;24.30;51.60
8563;DHT22;16392;52.508;13.468;2022-08-01T13:11:35;24.90;99.90
8563;DHT22;16392;52.508;13.468;2022-08-01T13:14:03;25.20;1.00
8563;DHT22;16392;52.508;13.468;2022-08-01T13:16:30;25.40;99.90
8563;DHT22;16392;52.508;13.468;2022-08-01T13:18:57;25.00;99.90
8563;DHT22;16392;52.508;13.468;2022-08-01T13:21:25;24.90;99.90
8563;DHT22;16392;52.508;13.468;2022-08-01T13:24:03;24.00;1.00
8563;DHT22;16392;52.508;13.468;2022-08-01T13:26:40;23.50;1.00
8563;DHT22;16392;52.508;13.468;2022-08-01T13:29:09;23.50;99.90
8563;DHT22;16392;52.508;13.468;2022-08-01T13:31:37;23.30;99.90
8563;DHT22;16392;52.508;13.468;2022-08-01T13:34:05;23.00;99.90
8563;DHT22;16392;52.508;13.468;2022-08-01T13:36:32;23.00;99.90
8563;DHT22;16392;52.508;13.468;2022-08-01T13:39:00;23.30;99.90
8563;DHT22;16392;52.508;13.468;2022-08-01T13:41:44;23.30;99.90
8563;DHT22;16392;52.508;13.468;2022-08-01T13:44:13;23.50;99.90
8563;DHT22;16392;52.508;13.468;2022-08-01T13:46:41;23.30;99.90
8563;DHT22;16392;52.508;13.468;2022-08-01T13:49:09;23.20;99.90
8563;DHT22;16392;52.508;13.468;2022-08-01T13:51:37;23.30;99.90
8563;DHT22;16392;52.508;13.468;2022-08-01T13:54:04;23.50;99.90
8563;DHT22;16392;52.508;13.468;2022-08-01T13:56:31;23.60;99.90
8563;DHT22;16392;52.508;13.468;2022-08-01T13:58:58;23.60;1.00
8563;DHT22;16392;52.508;13.468;2022-08-01T14:01:26;23.60;99.90
8563;DHT22;16392;52.508;13.468;2022-08-01T14:03:53;23.50;99.90
8563;DHT22;16392;52.508;13.468;2022-08-01T14:06:20;23.20;1.00
8563;DHT22;16392;52.508;13.468;2022-08-01T14:08:48;22.40;41.30
8563;DHT22;16392;52.508;13.468;2022-08-01T14:11:15;22.20;99.90
8563;DHT22;16392;52.508;13.468;2022-08-01T14:13:41;22.40;99.90
8563;DHT22;16392;52.508;13.468;2022-08-01T14:16:08;22.50;99.90
8563;DHT22;16392;52.508;13.468;2022-08-01T14:18:36;22.60;99.90
8563;DHT22;16392;52.508;13.468;2022-08-01T14:21:03;22.70;99.90
8563;DHT22;16392;52.508;13.468;2022-08-01T14:23:30;22.80;99.90
8563;DHT22;16392;52.508;13.468;2022-08-01T14:25:56;22.90;99.90
8563;DHT22;16392;52.508;13.468;2022-08-01T14:28:23;23.10;81.90
8563;DHT22;16392;52.508;13.468;2022-08-01T14:30:50;23.30;99.90
8563;DHT22;16392;52.508;13.468;2022-08-01T14:33:17;23.60;1.00
8563;DHT22;16392;52.508;13.468;2022-08-01T14:35:45;24.00;1.00
8563;DHT22;16392;52.508;13.468;2022-08-01T14:38:12;24.30;1.00
8563;DHT22;16392;52.508;13.468;2022-08-01T14:40:39;24.30;1.00
8563;DHT22;16392;52.508;13.468;2022-08-01T14:43:05;25.10;97.70
8563;DHT22;16392;52.508;13.468;2022-08-01T14:45:33;25.50;1.00
8563;DHT22;16392;52.508;13.468;2022-08-01T14:48:00;25.40;1.00
8563;DHT22;16392;52.508;13.468;2022-08-01T14:50:26;25.00;1.00
8563;DHT22;16392;52.508;13.468;2022-08-01T14:52:54;24.50;42.40
8563;DHT22;16392;52.508;13.468;2022-08-01T14:55:21;24.70;1.00
8563;DHT22;16392;52.508;13.468;2022-08-01T14:57:50;24.40;1.00
8563;DHT22;16392;52.508;13.468;2022-08-01T15:00:17;24.10;70.20
8563;DHT22;16392;52.508;13.468;2022-08-01T15:02:44;23.90;99.90
8563;DHT22;16392;52.508;13.468;2022-08-01T15:05:11;24.00;99.90
8563;DHT22;16392;52.508;13.468;2022-08-01T15:07:38;23.70;99.90
8563;DHT22;16392;52.508;13.468;2022-08-01T15:10:07;23.70;99.90
8563;DHT22;16392;52.508;13.468;2022-08-01T15:12:34;23.50;1.00
8563;DHT22;16392;52.508;13.468;2022-08-01T15:15:01;23.40;1.00
8563;DHT22;16392;52.508;13.468;2022-08-01T15:17:30;23.40;1.00
8563;DHT22;16392;52.508;13.468;2022-08-01T15:20:00;23.30;1.00
8563;DHT22;16392;52.508;13.468;2022-08-01T15:22:27;23.30;1.00
8563;DHT22;16392;52.508;13.468;2022-08-01T15:24:55;23.10;1.00
8563;DHT22;16392;52.508;13.468;2022-08-01T15:27:24;23.10;99.90
8563;DHT22;16392;52.508;13.468;2022-08-01T15:29:51;23.10;99.90
8563;DHT22;16392;52.508;13.468;2022-08-01T15:32:18;23.00;99.90
8563;DHT22;16392;52.508;13.468;2022-08-01T15:34:44;23.10;99.90
8563;DHT22;16392;52.508;13.468;2022-08-01T15:37:11;23.20;36.00
8563;DHT22;16392;52.508;13.468;2022-08-01T15:39:39;23.30;99.90
8563;DHT22;16392;52.508;13.468;2022-08-01T15:42:08;23.40;1.00
8563;DHT22;16392;52.508;13.468;2022-08-01T15:44:36;23.40;1.00